createdAt,value
2022-09-07T00:00:23.817Z,77.42
2022-09-07T00:01:23.792Z,77.66
2022-09-07T00:02:23.759Z,77.12
2022-09-07T00:03:23.852Z,77.73
2022-09-07T00:04:23.794Z,78.13
2022-09-07T00:05:23.802Z,77.53
2022-09-07T00:06:23.769Z,78.23
2022-09-07T00:07:23.749Z,78.03
2022-09-07T00:08:23.739Z,78.43
2022-09-07T00:09:23.696Z,78.03
2022-09-07T00:10:23.709Z,77.19
2022-09-07T00:11:23.698Z,77.12
2022-09-07T00:12:23.720Z,76.68
2022-09-07T00:13:23.688Z,77.59
2022-09-07T00:14:23.729Z,78.09
2022-09-07T00:15:23.680Z,78.09
2022-09-07T00:16:24.703Z,77.45
2022-09-07T00:17:23.653Z,77.99
2022-09-07T00:18:23.657Z,77.45
2022-09-07T00:19:23.627Z,77.99
2022-09-07T00:20:23.649Z,77.89
2022-09-07T00:21:23.589Z,77.49
2022-09-07T00:22:23.580Z,77.69
2022-09-07T00:23:23.566Z,77.39
2022-09-07T00:24:23.594Z,77.89
2022-09-07T00:25:23.615Z,77.22
2022-09-07T00:26:23.545Z,76.88
2022-09-07T00:27:23.526Z,76.58
2022-09-07T00:28:23.498Z,77.79
2022-09-07T00:29:23.508Z,78.19
2022-09-07T00:30:23.510Z,77.95
2022-09-07T00:31:23.609Z,77.55
2022-09-07T00:32:23.507Z,76.91
2022-09-07T00:33:23.525Z,76.44
2022-09-07T00:34:23.456Z,76.34
2022-09-07T00:35:23.555Z,76.40
2022-09-07T00:36:23.470Z,74.29
2022-09-07T00:37:23.479Z,74.19
2022-09-07T00:38:23.432Z,74.29
2022-09-07T00:39:23.475Z,73.99
2022-09-07T00:40:23.463Z,74.22
2022-09-07T00:41:23.402Z,74.87
2022-09-07T00:42:23.405Z,76.48
2022-09-07T00:43:23.370Z,76.58
2022-09-07T00:44:23.382Z,76.38
2022-09-07T00:45:23.427Z,75.98
2022-09-07T00:46:23.503Z,75.98
2022-09-07T00:47:23.360Z,75.87
2022-09-07T00:48:23.350Z,76.28
2022-09-07T00:49:23.355Z,75.34
2022-09-07T00:50:23.338Z,75.84
2022-09-07T00:51:23.312Z,76.14
2022-09-07T00:52:23.307Z,75.74
2022-09-07T00:53:23.334Z,75.30
2022-09-07T00:54:23.299Z,75.10
2022-09-07T00:55:23.287Z,74.90
2022-09-07T00:56:23.283Z,74.19
2022-09-07T00:57:23.268Z,74.15
2022-09-07T00:58:23.201Z,74.19
2022-09-07T00:59:23.164Z,73.85
2022-09-07T01:00:23.254Z,73.18
2022-09-07T01:01:23.355Z,72.24
2022-09-07T01:02:23.264Z,74.39
2022-09-07T01:03:23.200Z,74.19
2022-09-07T01:04:23.159Z,74.59
2022-09-07T01:05:24.950Z,74.43
2022-09-07T01:06:23.164Z,75.23
2022-09-07T01:07:23.120Z,76.28
2022-09-07T01:08:23.129Z,76.48
2022-09-07T01:09:23.122Z,75.98
2022-09-07T01:10:23.139Z,76.48
2022-09-07T01:11:23.109Z,76.38
2022-09-07T01:12:23.086Z,76.58
2022-09-07T01:13:23.065Z,76.51
2022-09-07T01:14:23.057Z,76.92
2022-09-07T01:15:23.078Z,76.95
2022-09-07T01:16:23.108Z,77.66
2022-09-07T01:17:23.022Z,78.00
2022-09-07T01:18:23.025Z,78.20
2022-09-07T01:19:23.014Z,78.91
2022-09-07T01:20:23.050Z,79.21
2022-09-07T01:21:22.984Z,78.85
2022-09-07T01:22:23.989Z,78.95
2022-09-07T01:23:22.988Z,80.57
2022-09-07T01:24:22.962Z,80.97
2022-09-07T01:25:22.993Z,81.07
2022-09-07T01:26:22.938Z,81.27
2022-09-07T01:27:22.964Z,80.87
2022-09-07T01:28:22.890Z,80.77
2022-09-07T01:29:22.901Z,81.44
2022-09-07T01:30:22.884Z,80.79
2022-09-07T01:31:22.975Z,80.59
2022-09-07T01:32:22.892Z,80.90
2022-09-07T01:33:22.874Z,81.10
2022-09-07T01:34:22.861Z,81.30
2022-09-07T01:35:22.837Z,81.30
2022-09-07T01:36:22.837Z,81.10
2022-09-07T01:37:22.790Z,80.99
2022-09-07T01:38:22.813Z,81.30
2022-09-07T01:39:22.808Z,81.30
2022-09-07T01:40:22.827Z,80.99
2022-09-07T01:41:22.819Z,81.05
2022-09-07T01:42:22.783Z,81.16
2022-09-07T01:43:22.790Z,81.46
2022-09-07T01:44:22.760Z,81.16
2022-09-07T01:45:22.775Z,81.16
2022-09-07T01:46:22.801Z,80.96
2022-09-07T01:47:22.780Z,80.65
2022-09-07T01:48:22.706Z,80.51
2022-09-07T01:49:22.748Z,80.31
2022-09-07T01:50:22.720Z,79.67
2022-09-07T01:51:22.759Z,79.87
2022-09-07T01:52:22.659Z,78.56
2022-09-07T01:53:22.700Z,77.39
2022-09-07T01:54:22.614Z,77.49
2022-09-07T01:55:22.641Z,78.70
2022-09-07T01:56:22.614Z,79.54
2022-09-07T01:57:22.631Z,80.25
2022-09-07T01:58:22.595Z,80.21
2022-09-07T01:59:22.628Z,79.81
2022-09-07T02:00:22.620Z,79.21
2022-09-07T02:01:22.627Z,79.00
2022-09-07T02:02:22.631Z,79.21
2022-09-07T02:03:22.575Z,78.76
2022-09-07T02:04:22.565Z,79.06
2022-09-07T02:05:22.582Z,79.16
2022-09-07T02:06:22.537Z,78.02
2022-09-07T02:07:22.529Z,77.92
2022-09-07T02:08:22.536Z,77.42
2022-09-07T02:09:22.512Z,78.12
2022-09-07T02:10:22.506Z,77.42
2022-09-07T02:11:22.483Z,76.87
2022-09-07T02:12:22.494Z,76.47
2022-09-07T02:13:22.475Z,76.27
2022-09-07T02:14:22.475Z,76.37
2022-09-07T02:15:22.512Z,76.37
2022-09-07T02:16:22.502Z,76.37
2022-09-07T02:17:22.525Z,76.07
2022-09-07T02:18:22.413Z,75.87
2022-09-07T02:19:22.442Z,75.83
2022-09-07T02:20:22.480Z,75.67
2022-09-07T02:21:22.372Z,74.82
2022-09-07T02:22:22.380Z,74.82
2022-09-07T02:23:22.372Z,74.82
2022-09-07T02:24:22.358Z,74.52
2022-09-07T02:25:22.316Z,74.32
2022-09-07T02:26:22.307Z,74.32
2022-09-07T02:27:22.319Z,74.82
2022-09-07T02:28:22.355Z,74.42
2022-09-07T02:29:22.298Z,75.76
2022-09-07T02:30:22.328Z,76.20
2022-09-07T02:31:22.305Z,76.31
2022-09-07T02:55:31.676Z,70.12
2022-09-07T02:56:32.951Z,69.82
2022-09-07T02:57:32.938Z,70.03
2022-09-07T02:58:32.766Z,69.32
2022-09-07T02:59:33.725Z,69.52
2022-09-07T03:00:32.736Z,69.12
2022-09-07T03:01:32.764Z,69.42
2022-09-07T03:02:32.752Z,68.78
2022-09-07T03:03:32.731Z,68.48
2022-09-07T03:04:32.646Z,68.48
2022-09-07T03:05:32.679Z,68.59
2022-09-07T03:06:32.666Z,68.38
2022-09-07T03:07:35.793Z,68.45
2022-09-07T03:08:33.613Z,69.06
2022-09-07T03:09:32.576Z,68.85
2022-09-07T03:10:32.672Z,68.21
2022-09-07T03:11:32.590Z,68.82
2022-09-07T03:12:32.565Z,68.41
2022-09-07T03:13:32.558Z,68.32
2022-09-07T03:14:32.578Z,68.02
2022-09-07T03:15:32.603Z,68.29
2022-09-07T03:16:32.533Z,68.49
2022-09-07T03:17:32.547Z,68.99
2022-09-07T03:18:32.722Z,69.72
2022-09-07T03:19:32.513Z,69.62
2022-09-07T03:20:32.510Z,71.13
2022-09-07T03:21:32.486Z,71.60
2022-09-07T03:22:32.516Z,71.43
2022-09-07T03:23:32.462Z,72.24
2022-09-07T03:24:32.450Z,71.53
2022-09-07T03:25:32.517Z,71.83
2022-09-07T03:26:32.438Z,72.17
2022-09-07T03:27:32.475Z,72.47
2022-09-07T03:28:32.441Z,72.64
2022-09-07T03:29:32.417Z,73.27
2022-09-07T03:30:32.511Z,73.14
2022-09-07T03:31:32.415Z,74.04
2022-09-07T03:32:32.396Z,74.04
2022-09-07T03:33:32.381Z,74.18
2022-09-07T03:34:32.374Z,74.24
2022-09-07T03:35:32.367Z,75.99
2022-09-07T03:36:32.378Z,76.29
2022-09-07T03:37:32.377Z,75.99
2022-09-07T03:38:32.470Z,76.49
2022-09-07T03:39:32.331Z,75.99
2022-09-07T03:40:32.372Z,75.79
2022-09-07T03:41:32.334Z,76.79
2022-09-07T03:42:32.323Z,76.69
2022-09-07T03:43:32.275Z,76.73
2022-09-07T03:44:32.242Z,77.63
2022-09-07T03:45:32.258Z,77.23
2022-09-07T03:46:32.253Z,78.23
2022-09-07T03:47:32.278Z,78.94
2022-09-07T03:48:32.368Z,78.54
2022-09-07T03:49:32.238Z,81.09
2022-09-07T03:50:32.204Z,81.53
2022-09-07T03:51:32.196Z,81.53
2022-09-07T03:52:32.184Z,82.07
2022-09-07T03:53:32.142Z,82.88
2022-09-07T03:54:32.156Z,83.79
2022-09-07T03:55:32.154Z,83.18
2022-09-07T03:56:32.146Z,83.08
2022-09-07T03:57:32.194Z,83.22
2022-09-07T03:58:32.290Z,83.12
2022-09-07T03:59:32.137Z,84.43
2022-09-07T04:00:32.128Z,83.93
2022-09-07T04:01:32.165Z,84.27
2022-09-07T04:02:32.154Z,85.62
2022-09-07T04:03:32.123Z,85.86
2022-09-07T04:04:32.068Z,86.71
2022-09-07T04:05:32.067Z,87.62
2022-09-07T04:06:32.019Z,87.41
2022-09-07T04:07:32.071Z,88.02
2022-09-07T04:08:32.163Z,88.06
2022-09-07T04:09:32.054Z,88.77
2022-09-07T04:10:31.976Z,88.43
2022-09-07T04:11:32.053Z,89.43
2022-09-07T04:12:31.968Z,88.63
2022-09-07T04:13:31.972Z,88.08
2022-09-07T04:14:31.984Z,88.18
2022-09-07T04:15:31.950Z,88.08
2022-09-07T04:16:32.111Z,87.62
2022-09-07T04:17:31.908Z,87.82
2022-09-07T04:18:32.042Z,88.02
2022-09-07T04:19:31.929Z,88.23
2022-09-07T04:20:31.885Z,88.97
2022-09-07T04:21:31.866Z,88.87
2022-09-07T04:22:31.884Z,89.58
2022-09-07T04:23:31.882Z,89.58
2022-09-07T04:24:31.872Z,90.08
2022-09-07T04:25:31.854Z,89.68
2022-09-07T04:26:31.857Z,89.98
2022-09-07T04:27:31.865Z,89.78
2022-09-07T04:28:31.987Z,89.64
2022-09-07T04:29:31.863Z,88.63
2022-09-07T04:30:32.841Z,88.67
2022-09-07T04:31:31.851Z,89.58
2022-09-07T04:32:31.865Z,89.42
2022-09-07T04:33:31.748Z,89.92
2022-09-07T04:34:32.808Z,89.78
2022-09-07T04:35:31.742Z,90.28
2022-09-07T04:36:31.791Z,90.28
2022-09-07T04:37:31.769Z,90.69
2022-09-07T04:38:31.849Z,90.49
2022-09-07T04:39:31.761Z,89.98
2022-09-07T04:40:31.708Z,89.48
2022-09-07T04:41:31.730Z,89.74
2022-09-07T04:42:31.661Z,90.14
2022-09-07T04:43:31.859Z,89.64
2022-09-07T04:44:31.724Z,89.13
2022-09-07T04:45:31.640Z,88.73
2022-09-07T04:46:31.692Z,89.98
2022-09-07T04:47:31.623Z,89.78
2022-09-07T04:48:31.891Z,90.08
2022-09-07T04:49:31.629Z,91.50
2022-09-07T04:50:31.582Z,91.09
2022-09-07T04:51:31.615Z,90.28
2022-09-07T04:52:31.626Z,89.94
2022-09-07T04:53:31.578Z,89.84
2022-09-07T04:54:31.597Z,90.34
2022-09-07T04:55:31.539Z,90.65
2022-09-07T04:56:31.595Z,90.65
2022-09-07T04:57:31.573Z,89.43
2022-09-07T04:58:31.735Z,89.74
2022-09-07T04:59:31.553Z,90.04
2022-09-07T05:00:31.512Z,89.68
2022-09-07T05:01:31.595Z,89.64
2022-09-07T05:02:31.557Z,89.37
2022-09-07T05:03:31.476Z,89.28
2022-09-07T05:04:31.470Z,90.08
2022-09-07T05:05:31.447Z,90.19
2022-09-07T05:06:31.459Z,90.99
2022-09-07T05:07:31.425Z,90.79
2022-09-07T05:08:32.673Z,90.89
2022-09-07T05:09:31.416Z,89.98
2022-09-07T05:10:31.393Z,90.14
2022-09-07T05:11:31.391Z,89.34
2022-09-07T05:12:31.380Z,89.74
2022-09-07T05:13:31.392Z,88.43
2022-09-07T05:14:31.356Z,88.53
2022-09-07T05:15:31.380Z,87.98
2022-09-07T05:16:31.488Z,88.59
2022-09-07T05:17:32.176Z,88.79
2022-09-07T05:18:31.473Z,88.93
2022-09-07T05:19:31.514Z,89.13
2022-09-07T05:20:31.290Z,89.94
2022-09-07T05:21:31.366Z,89.34
2022-09-07T05:22:31.281Z,89.34
2022-09-07T05:23:31.280Z,89.58
2022-09-07T05:24:31.262Z,89.84
2022-09-07T05:25:32.289Z,89.43
2022-09-07T05:26:31.250Z,89.84
2022-09-07T05:27:31.267Z,90.14
2022-09-07T05:28:31.353Z,89.54
2022-09-07T05:31:33.226Z,90.08
2022-09-07T05:32:32.115Z,89.64
2022-09-07T05:34:33.422Z,90.04
2022-09-07T05:35:31.139Z,90.04
2022-09-07T05:36:31.141Z,90.04
2022-09-07T05:37:31.164Z,89.64
2022-09-07T05:38:31.321Z,89.88
2022-09-07T05:39:31.298Z,89.54
2022-09-07T05:40:31.122Z,89.13
2022-09-07T05:41:31.090Z,88.73
2022-09-07T05:42:31.121Z,89.43
2022-09-07T05:43:31.094Z,88.12
2022-09-07T05:44:46.490Z,88.43
2022-09-07T05:45:33.212Z,88.63
2022-09-07T05:46:31.061Z,88.83
2022-09-07T05:47:31.066Z,89.13
2022-09-07T05:48:34.774Z,90.24
2022-09-07T05:49:31.112Z,89.54
2022-09-07T05:50:31.102Z,89.34
2022-09-07T05:51:30.996Z,89.03
2022-09-07T05:52:31.037Z,89.39
2022-09-07T05:53:31.021Z,89.70
2022-09-07T05:54:30.986Z,89.79
2022-09-07T05:55:30.991Z,89.19
2022-09-07T05:56:31.011Z,89.19
2022-09-07T05:57:30.927Z,89.39
2022-09-07T05:58:31.038Z,89.19
2022-09-07T05:59:30.933Z,89.09
2022-09-07T06:00:30.937Z,89.29
2022-09-07T06:01:31.844Z,89.45
2022-09-07T06:02:31.050Z,88.59
2022-09-07T06:03:30.983Z,88.34
2022-09-07T06:04:30.912Z,89.15
2022-09-07T06:05:30.919Z,89.05
2022-09-07T06:06:30.859Z,88.00
2022-09-07T06:07:30.848Z,87.70
2022-09-07T06:08:30.931Z,87.40
2022-09-07T06:09:30.902Z,87.40
2022-09-07T06:10:46.124Z,87.15
2022-09-07T06:11:32.831Z,87.15
2022-09-07T06:12:30.790Z,86.85
2022-09-07T06:13:30.884Z,86.44
2022-09-07T06:14:30.789Z,86.95
2022-09-07T06:15:30.772Z,86.30
2022-09-07T06:16:30.816Z,85.70
2022-09-07T06:17:30.758Z,86.21
2022-09-07T06:18:30.726Z,85.80
2022-09-07T06:19:30.802Z,85.00
2022-09-07T06:20:30.711Z,85.10
2022-09-07T06:21:30.644Z,84.80
2022-09-07T06:22:31.342Z,84.29
2022-09-07T06:23:31.804Z,84.69
2022-09-07T06:24:30.716Z,84.29
2022-09-07T06:25:30.687Z,84.49
2022-09-07T06:26:30.614Z,85.00
2022-09-07T06:27:30.636Z,84.80
2022-09-07T06:28:30.629Z,85.10
2022-09-07T06:29:30.654Z,84.15
2022-09-07T06:30:30.683Z,83.25
2022-09-07T06:31:30.758Z,83.14
2022-09-07T06:32:46.857Z,83.14
2022-09-07T06:33:34.528Z,83.65
2022-09-07T06:34:30.578Z,83.65
2022-09-07T06:35:30.582Z,83.20
2022-09-07T06:36:30.535Z,83.45
2022-09-07T06:37:30.540Z,82.90
2022-09-07T06:38:31.925Z,83.91
2022-09-07T06:39:31.616Z,83.11
2022-09-07T06:40:30.563Z,83.11
2022-09-07T06:42:32.476Z,82.20
2022-09-07T06:43:30.608Z,82.10
2022-09-07T06:44:30.482Z,82.30
2022-09-07T06:45:30.486Z,83.31
2022-09-07T06:47:32.459Z,83.20
2022-09-07T06:48:30.702Z,83.11
2022-09-07T06:49:30.447Z,82.97
2022-09-07T06:50:30.407Z,81.85
2022-09-07T06:51:30.418Z,82.26
2022-09-07T06:55:32.380Z,81.41
2022-09-07T06:56:30.330Z,81.58
2022-09-07T06:57:30.386Z,81.78
2022-09-07T06:58:30.463Z,81.78
2022-09-07T06:59:30.356Z,80.27
2022-09-07T07:00:30.338Z,80.57
2022-09-07T07:01:30.362Z,80.33
2022-09-07T07:02:30.278Z,80.43
2022-09-07T07:03:30.357Z,80.63
2022-09-07T07:04:30.317Z,80.74
2022-09-07T07:05:30.272Z,80.94
2022-09-07T07:06:30.259Z,79.93
2022-09-07T07:07:30.255Z,80.83
2022-09-07T07:08:30.333Z,79.99
2022-09-07T07:09:30.240Z,80.50
2022-09-07T07:10:30.228Z,80.90
2022-09-07T07:11:30.203Z,80.80
2022-09-07T07:14:44.973Z,79.36
2022-09-07T07:15:41.326Z,79.29
2022-09-07T07:16:41.307Z,80.19
2022-09-07T07:17:41.353Z,80.66
2022-09-07T07:18:41.234Z,80.50
2022-09-07T07:19:41.181Z,79.49
2022-09-07T07:20:42.380Z,80.70
2022-09-07T07:22:07.858Z,80.30
2022-09-07T07:22:46.831Z,80.40
2022-09-07T07:23:43.373Z,78.45
2022-09-07T07:24:42.315Z,78.45
2022-09-07T07:25:42.289Z,78.35
2022-09-07T07:26:42.307Z,77.72
2022-09-07T07:27:42.239Z,77.72
2022-09-07T07:29:44.241Z,77.67
2022-09-07T07:30:42.240Z,77.78
2022-09-07T07:31:42.209Z,76.17
2022-09-07T07:32:42.241Z,76.87
2022-09-07T07:33:42.363Z,76.11
2022-09-07T07:34:42.207Z,76.07
2022-09-07T07:35:42.202Z,76.11
2022-09-07T07:36:42.146Z,76.91
2022-09-07T07:37:42.202Z,75.21
2022-09-07T07:40:44.372Z,72.86
2022-09-07T07:42:00.137Z,72.63
2022-09-07T07:42:44.132Z,72.83
2022-09-07T07:43:42.107Z,71.93
2022-09-07T07:44:42.169Z,71.33
2022-09-07T07:45:59.182Z,72.03
2022-09-07T07:46:44.118Z,72.23
2022-09-07T07:47:42.094Z,74.23
2022-09-07T07:48:42.047Z,73.83
2022-09-07T07:49:42.027Z,74.33
2022-09-07T07:50:42.018Z,73.53
2022-09-07T07:53:41.299Z,72.53
2022-09-07T07:53:44.027Z,72.13
2022-09-07T07:54:41.995Z,75.54
2022-09-07T07:55:43.619Z,72.53
2022-09-07T07:56:42.946Z,72.50
2022-09-07T07:57:41.949Z,71.09
2022-09-07T07:58:41.921Z,69.86
2022-09-07T07:59:41.955Z,70.06
2022-09-07T08:00:54.424Z,71.36
2022-09-07T08:01:44.088Z,71.39
2022-09-07T08:02:42.056Z,71.56
2022-09-07T08:03:41.892Z,69.96
2022-09-07T08:04:41.880Z,71.86
2022-09-07T08:05:41.915Z,72.13
2022-09-07T08:06:41.878Z,72.53
2022-09-07T08:07:41.833Z,72.33
2022-09-07T08:08:41.866Z,71.89
2022-09-07T08:09:41.851Z,70.59
2022-09-07T08:10:41.968Z,69.99
2022-09-07T08:11:41.794Z,69.89
2022-09-07T08:12:41.821Z,68.46
2022-09-07T08:13:41.782Z,67.99
2022-09-07T08:14:42.016Z,68.29
2022-09-07T08:15:41.796Z,69.29
2022-09-07T08:16:42.518Z,69.19
2022-09-07T08:17:41.726Z,68.49
2022-09-07T08:18:46.357Z,67.59
2022-09-07T08:19:42.792Z,68.19
2022-09-07T08:20:41.730Z,67.69
2022-09-07T08:21:41.782Z,68.39
2022-09-07T08:22:41.709Z,69.16
2022-09-07T08:23:41.675Z,69.86
2022-09-07T08:24:41.733Z,69.23
2022-09-07T08:25:41.703Z,67.43
2022-09-07T08:26:41.649Z,67.63
2022-09-07T08:27:41.651Z,66.89
2022-09-07T08:28:41.680Z,67.80
2022-09-07T08:29:41.620Z,68.29
2022-09-07T08:30:41.669Z,66.60
2022-09-07T08:31:41.678Z,67.10
2022-09-07T08:32:41.613Z,66.09
2022-09-07T08:33:41.615Z,66.47
2022-09-07T08:34:41.589Z,65.77
2022-09-07T08:35:41.541Z,65.83
2022-09-07T08:36:41.595Z,66.47
2022-09-07T08:37:41.535Z,65.64
2022-09-07T08:38:41.546Z,65.04
2022-09-07T08:39:41.589Z,64.84
2022-09-07T08:40:41.542Z,65.34
2022-09-07T08:41:41.504Z,65.26
2022-09-07T08:42:41.482Z,64.94
2022-09-07T08:43:43.895Z,65.07
2022-09-07T08:44:42.533Z,66.86
2022-09-07T08:45:41.471Z,65.97
2022-09-07T08:46:41.529Z,64.44
2022-09-07T08:47:41.481Z,64.84
2022-09-07T08:48:41.452Z,64.61
2022-09-07T08:49:41.481Z,64.51
2022-09-07T08:50:41.545Z,64.21
2022-09-07T08:51:41.458Z,63.71
2022-09-07T08:52:41.538Z,63.44
2022-09-07T08:53:41.412Z,64.54
2022-09-07T08:54:41.412Z,63.64
2022-09-07T08:58:55.432Z,63.38
2022-09-07T08:59:55.459Z,63.28
2022-09-07T09:01:30.725Z,64.07
2022-09-07T09:05:56.433Z,64.48
2022-09-07T09:06:55.404Z,63.45
2022-09-07T09:07:55.321Z,62.55
2022-09-07T09:08:56.487Z,63.05
2022-09-07T09:09:56.547Z,63.65
2022-09-07T09:10:56.428Z,62.15
2022-09-07T09:11:56.468Z,62.52
2022-09-07T09:12:56.449Z,62.45
2022-09-07T09:13:56.445Z,63.52
2022-09-07T09:14:56.335Z,62.55
2022-09-07T09:15:56.436Z,62.32
2022-09-07T09:16:56.374Z,62.23
2022-09-07T09:17:56.340Z,62.79
2022-09-07T09:18:56.382Z,61.30
2022-09-07T09:19:56.387Z,60.40
2022-09-07T09:20:56.338Z,60.90
2022-09-07T09:21:56.361Z,60.50
2022-09-07T09:22:56.331Z,62.42
2022-09-07T09:23:56.317Z,62.40
2022-09-07T09:24:56.366Z,62.29
2022-09-07T09:25:56.266Z,61.43
2022-09-07T09:26:56.392Z,63.29
2022-09-07T09:27:56.281Z,62.10
2022-09-07T09:28:56.260Z,61.00
2022-09-07T09:29:56.250Z,60.87
2022-09-07T09:30:56.334Z,60.87
2022-09-07T09:31:56.228Z,61.34
2022-09-07T09:32:56.200Z,60.17
2022-09-07T09:33:56.292Z,60.05
2022-09-07T09:34:56.187Z,59.85
2022-09-07T09:35:56.179Z,59.15
2022-09-07T09:36:56.201Z,59.85
2022-09-07T09:37:56.171Z,59.55
2022-09-07T09:38:56.189Z,60.52
2022-09-07T09:39:58.113Z,58.83
2022-09-07T09:40:57.192Z,58.73
2022-09-07T09:41:56.143Z,58.92
2022-09-07T09:42:56.179Z,59.19
2022-09-07T09:43:56.110Z,58.90
2022-09-07T09:44:56.152Z,58.50
2022-09-07T09:47:58.115Z,57.58
2022-09-07T09:48:56.112Z,56.59
2022-09-07T09:49:56.025Z,57.11
2022-09-07T09:52:58.086Z,58.17
2022-09-07T09:53:56.085Z,56.49
2022-09-07T09:55:03.354Z,57.98
2022-09-07T09:55:58.010Z,58.04
2022-09-07T09:56:56.026Z,55.57
2022-09-07T09:59:05.810Z,58.04
2022-09-07T10:00:01.524Z,56.85
2022-09-07T10:04:00.497Z,56.36
2022-09-07T10:04:56.961Z,56.34
2022-09-07T10:05:55.948Z,56.26
2022-09-07T10:06:55.917Z,57.45
2022-09-07T10:07:55.934Z,55.24
2022-09-07T10:08:55.908Z,56.36
2022-09-07T10:09:55.839Z,55.74
2022-09-07T10:10:55.869Z,54.94
2022-09-07T10:12:12.115Z,56.13
2022-09-07T10:12:57.834Z,56.53
2022-09-07T10:13:55.821Z,56.06
2022-09-07T10:14:55.824Z,56.38
2022-09-07T10:15:55.950Z,56.38
2022-09-07T10:16:55.931Z,57.58
2022-09-07T10:17:57.011Z,56.88
2022-09-07T10:18:55.777Z,56.66
2022-09-07T10:19:55.804Z,56.95
2022-09-07T10:20:55.805Z,56.19
2022-09-07T10:21:55.754Z,56.78
2022-09-07T10:22:55.763Z,57.78
2022-09-07T10:23:55.737Z,56.46
2022-09-07T10:24:55.755Z,57.18
2022-09-07T10:25:55.740Z,56.76
2022-09-07T10:26:55.714Z,56.76
2022-09-07T10:27:55.689Z,55.44
2022-09-07T10:29:11.442Z,55.91
2022-09-07T10:29:57.697Z,55.51
2022-09-07T10:30:55.825Z,54.60
2022-09-07T10:31:55.725Z,55.02
2022-09-07T10:32:55.625Z,54.69
2022-09-07T10:34:57.647Z,54.67
2022-09-07T10:35:55.615Z,52.36
2022-09-07T10:36:55.610Z,53.48
2022-09-07T10:37:56.621Z,53.06
2022-09-07T10:38:55.588Z,53.35
2022-09-07T10:40:00.105Z,53.88
2022-09-07T10:40:56.561Z,54.37
2022-09-07T10:41:55.587Z,53.88
2022-09-07T10:43:57.607Z,52.96
2022-09-07T10:44:55.575Z,53.55
2022-09-07T10:45:55.501Z,54.14
2022-09-07T10:46:56.988Z,54.35
2022-09-07T10:47:56.555Z,53.06
2022-09-07T10:48:55.458Z,54.35
2022-09-07T10:50:57.425Z,54.61
2022-09-07T10:51:56.097Z,53.72
2022-09-07T10:52:55.423Z,53.55
2022-09-07T10:54:57.456Z,53.33
2022-09-07T10:55:55.416Z,52.22
2022-09-07T10:56:55.411Z,52.04
2022-09-07T10:57:55.396Z,52.07
2022-09-07T10:59:03.433Z,52.26
2022-09-07T11:00:13.067Z,52.66
2022-09-07T11:00:58.008Z,52.14
2022-09-07T11:01:55.455Z,50.93
2022-09-07T11:03:57.402Z,51.47
2022-09-07T11:04:55.366Z,50.88
2022-09-07T11:05:55.311Z,51.70
2022-09-07T11:06:55.335Z,52.41
2022-09-07T11:07:55.283Z,51.70
2022-09-07T11:09:24.828Z,51.40
2022-09-07T11:09:57.318Z,49.99
2022-09-07T11:10:55.287Z,49.30
2022-09-07T11:12:03.608Z,48.78
2022-09-07T11:12:57.240Z,47.47
2022-09-07T11:14:11.990Z,47.18
2022-09-07T11:14:57.395Z,46.96
2022-09-07T11:15:56.340Z,46.37
2022-09-07T11:16:55.284Z,47.25
2022-09-07T11:17:55.272Z,46.78
2022-09-07T11:19:35.177Z,47.89
2022-09-07T11:19:57.307Z,48.16
2022-09-07T11:20:55.307Z,48.46
2022-09-07T11:21:56.602Z,48.46
2022-09-07T11:22:56.159Z,48.36
2022-09-07T11:23:55.229Z,48.24
2022-09-07T11:25:57.160Z,46.37
2022-09-07T11:26:55.091Z,46.88
2022-09-07T11:27:55.182Z,46.07
2022-09-07T11:29:57.137Z,46.84
2022-09-07T11:30:59.262Z,48.51
2022-09-07T11:31:56.057Z,48.61
2022-09-07T11:32:55.059Z,48.41
2022-09-07T11:34:25.108Z,46.96
2022-09-07T11:34:57.039Z,48.36
2022-09-07T11:35:55.154Z,48.66
2022-09-07T11:36:55.046Z,49.43
2022-09-07T11:37:55.069Z,49.40
2022-09-07T11:38:55.017Z,46.42
2022-09-07T11:39:55.197Z,48.10
2022-09-07T11:40:55.036Z,47.50
2022-09-07T11:41:55.119Z,46.91
2022-09-07T11:42:55.038Z,46.22
2022-09-07T11:43:54.988Z,45.90
2022-09-07T11:44:54.961Z,46.81
2022-09-07T11:45:55.230Z,47.60
2022-09-07T11:46:54.897Z,46.22
2022-09-07T11:47:54.905Z,46.47
2022-09-07T11:48:54.976Z,46.37
2022-09-07T11:49:59.023Z,45.17
2022-09-07T11:50:55.876Z,43.77
2022-09-07T11:51:54.898Z,43.16
2022-09-07T11:52:54.879Z,43.28
2022-09-07T11:53:54.903Z,43.28
2022-09-07T11:54:54.871Z,42.20
2022-09-07T11:55:54.988Z,43.62
2022-09-07T11:56:54.836Z,45.63
2022-09-07T11:57:55.799Z,46.34
2022-09-07T11:58:55.961Z,46.94
2022-09-07T11:59:54.926Z,46.72
2022-09-07T12:00:54.822Z,45.31
2022-09-07T12:01:54.812Z,45.41
2022-09-07T12:02:59.817Z,46.67
2022-09-07T12:03:56.913Z,45.29
2022-09-07T12:04:56.527Z,44.11
2022-09-07T12:05:55.752Z,45.59
2022-09-07T12:06:54.895Z,45.49
2022-09-07T12:07:55.159Z,45.78
2022-09-07T12:08:54.757Z,45.39
2022-09-07T12:09:54.779Z,44.94
2022-09-07T12:10:54.835Z,45.56
2022-09-07T12:11:54.767Z,46.22
2022-09-07T12:12:54.735Z,46.32
2022-09-07T12:13:54.891Z,46.74
2022-09-07T12:14:54.711Z,46.94
2022-09-07T12:15:54.735Z,45.81
2022-09-07T12:16:54.912Z,44.43
2022-09-07T12:17:54.698Z,45.59
2022-09-07T12:18:54.647Z,45.37
2022-09-07T12:19:54.663Z,44.29
2022-09-07T12:20:54.631Z,44.46
2022-09-07T12:21:54.630Z,43.68
2022-09-07T12:22:54.710Z,43.26
2022-09-07T12:23:55.596Z,42.77
2022-09-07T12:24:54.916Z,43.18
2022-09-07T12:25:54.558Z,43.40
2022-09-07T12:26:54.613Z,44.58
2022-09-07T12:27:54.551Z,44.29
2022-09-07T12:28:54.524Z,43.62
2022-09-07T12:29:54.610Z,44.19
2022-09-07T12:30:54.547Z,42.91
2022-09-07T12:31:59.349Z,43.20
2022-09-07T12:32:58.445Z,44.29
2022-09-07T12:33:54.525Z,43.71
2022-09-07T12:34:54.742Z,43.23
2022-09-07T12:35:54.607Z,43.20
2022-09-07T12:36:54.497Z,42.81
2022-09-07T12:37:54.539Z,41.61
2022-09-07T12:38:54.534Z,42.79
2022-09-07T12:39:54.490Z,41.80
2022-09-07T12:40:54.893Z,41.83
2022-09-07T12:42:56.402Z,43.01
2022-09-07T12:43:54.387Z,42.91
2022-09-07T12:44:54.417Z,42.69
2022-09-07T12:45:54.612Z,42.28
2022-09-07T12:46:54.335Z,41.00
2022-09-07T12:47:54.388Z,40.98
2022-09-07T12:48:54.321Z,40.29
2022-09-07T12:49:54.403Z,41.37
2022-09-07T12:50:54.321Z,41.78
2022-09-07T12:52:09.073Z,41.08
2022-09-07T12:52:56.300Z,40.31
2022-09-07T12:53:57.531Z,41.61
2022-09-07T12:55:16.473Z,41.71
2022-09-07T12:57:56.271Z,40.69
2022-09-07T12:58:54.282Z,39.88
2022-09-07T12:59:55.122Z,40.39
2022-09-07T13:00:54.232Z,40.62
2022-09-07T13:01:54.320Z,40.74
2022-09-07T13:02:55.298Z,42.81
2022-09-07T13:03:54.230Z,41.33
2022-09-07T13:04:54.199Z,42.20
2022-09-07T13:05:55.197Z,42.59
2022-09-07T13:07:01.997Z,41.78
2022-09-07T13:08:06.940Z,42.14
2022-09-07T13:08:56.141Z,43.03
2022-09-07T13:09:54.138Z,43.56
2022-09-07T13:10:54.151Z,41.69
2022-09-07T13:11:54.132Z,42.91
2022-09-07T13:12:55.277Z,42.64
2022-09-07T13:14:03.688Z,42.93
2022-09-07T13:14:56.948Z,42.91
2022-09-07T13:15:54.555Z,43.68
2022-09-07T13:17:56.129Z,43.44
2022-09-07T13:18:54.157Z,43.23
2022-09-07T13:19:54.123Z,41.35
2022-09-07T13:20:54.367Z,42.32
2022-09-07T13:21:54.123Z,42.32
2022-09-07T13:22:54.405Z,41.43
2022-09-07T13:23:54.247Z,41.25
2022-09-07T13:24:54.189Z,40.56
2022-09-07T13:25:54.071Z,40.58
2022-09-07T13:26:54.206Z,41.00
2022-09-07T13:27:54.026Z,41.17
2022-09-07T13:28:54.942Z,41.69
2022-09-07T13:29:55.080Z,42.18
2022-09-07T13:30:53.974Z,41.49
2022-09-07T13:31:53.999Z,41.27
2022-09-07T13:33:09.337Z,40.09
2022-09-07T13:33:56.176Z,40.58
2022-09-07T13:34:54.068Z,40.31
2022-09-07T13:35:53.888Z,41.00
2022-09-07T13:36:53.902Z,40.43
2022-09-07T13:37:53.868Z,41.33
2022-09-07T13:38:54.014Z,41.65
2022-09-07T13:39:53.924Z,42.08
2022-09-07T13:40:53.864Z,43.29
2022-09-07T13:41:53.826Z,43.07
2022-09-07T13:42:54.625Z,42.70
2022-09-07T13:43:53.998Z,42.60
2022-09-07T13:44:53.925Z,42.60
2022-09-07T13:45:53.917Z,42.48
2022-09-07T13:46:53.968Z,41.57
2022-09-07T13:47:53.773Z,41.04
2022-09-07T13:48:53.916Z,40.62
2022-09-07T13:49:56.100Z,41.02
2022-09-07T13:50:54.830Z,40.62
2022-09-07T13:51:53.869Z,40.82
2022-09-07T13:52:53.713Z,41.22
2022-09-07T13:53:53.719Z,41.20
2022-09-07T13:54:54.010Z,41.17
2022-09-07T13:55:53.796Z,39.97